sensor_id;sensor_type;location;lat;lon;timestamp;temperature;humidity
46139;DHT22;32398;49.112;8.598;2024-03-08T00:01:06;6.10;99.90
46139;DHT22;32398;49.112;8.598;2024-03-08T00:03:33;6.10;99.90
46139;DHT22;32398;49.112;8.598;2024-03-08T00:06:01;6.10;99.90
46139;DHT22;32398;49.112;8.598;2024-03-08T00:08:30;6.00;99.90
46139;DHT22;32398;49.112;8.598;2024-03-08T00:10:56;6.00;99.90
46139;DHT22;32398;49.112;8.598;2024-03-08T00:13:23;6.00;99.90
46139;DHT22;32398;49.112;8.598;2024-03-08T00:15:50;6.00;99.90
46139;DHT22;32398;49.112;8.598;2024-03-08T00:18:17;6.00;99.90
46139;DHT22;32398;49.112;8.598;2024-03-08T00:20:43;5.90;99.90
46139;DHT22;32398;49.112;8.598;2024-03-08T00:23:11;5.90;99.90
46139;DHT22;32398;49.112;8.598;2024-03-08T00:25:38;5.90;99.90
46139;DHT22;32398;49.112;8.598;2024-03-08T00:28:06;5.90;99.90
46139;DHT22;32398;49.112;8.598;2024-03-08T00:30:32;5.90;99.90
46139;DHT22;32398;49.112;8.598;2024-03-08T00:33:00;5.80;99.90
46139;DHT22;32398;49.112;8.598;2024-03-08T00:35:28;5.80;99.90
46139;DHT22;32398;49.112;8.598;2024-03-08T00:37:55;5.80;99.90
46139;DHT22;32398;49.112;8.598;2024-03-08T00:40:23;5.80;99.90
46139;DHT22;32398;49.112;8.598;2024-03-08T00:42:49;5.80;99.90
46139;DHT22;32398;49.112;8.598;2024-03-08T00:45:18;5.70;99.90
46139;DHT22;32398;49.112;8.598;2024-03-08T00:47:45;5.70;99.90
46139;DHT22;32398;49.112;8.598;2024-03-08T00:50:11;5.70;99.90
46139;DHT22;32398;49.112;8.598;2024-03-08T00:52:39;5.70;99.90
46139;DHT22;32398;49.112;8.598;2024-03-08T00:55:06;5.60;99.90
46139;DHT22;32398;49.112;8.598;2024-03-08T00:57:34;5.60;99.90
46139;DHT22;32398;49.112;8.598;2024-03-08T01:00:02;5.60;99.90
46139;DHT22;32398;49.112;8.598;2024-03-08T01:02:29;5.60;99.90
46139;DHT22;32398;49.112;8.598;2024-03-08T01:04:56;5.50;99.90
46139;DHT22;32398;49.112;8.598;2024-03-08T01:07:23;5.50;99.90
46139;DHT22;32398;49.112;8.598;2024-03-08T01:09:49;5.50;99.90
46139;DHT22;32398;49.112;8.598;2024-03-08T01:12:16;5.50;99.90
46139;DHT22;32398;49.112;8.598;2024-03-08T01:14:44;5.50;99.90
46139;DHT22;32398;49.112;8.598;2024-03-08T01:17:11;5.50;99.90
46139;DHT22;32398;49.112;8.598;2024-03-08T01:19:38;5.40;99.90
46139;DHT22;32398;49.112;8.598;2024-03-08T01:22:05;5.50;99.90
46139;DHT22;32398;49.112;8.598;2024-03-08T01:24:31;5.40;99.90
46139;DHT22;32398;49.112;8.598;2024-03-08T01:26:58;5.40;99.90
46139;DHT22;32398;49.112;8.598;2024-03-08T01:29:25;5.40;99.90
46139;DHT22;32398;49.112;8.598;2024-03-08T01:31:53;5.30;99.90
46139;DHT22;32398;49.112;8.598;2024-03-08T01:34:19;5.30;99.90
46139;DHT22;32398;49.112;8.598;2024-03-08T01:36:46;5.30;99.90
46139;DHT22;32398;49.112;8.598;2024-03-08T01:39:14;5.30;99.90
46139;DHT22;32398;49.112;8.598;2024-03-08T01:41:41;5.20;99.90
46139;DHT22;32398;49.112;8.598;2024-03-08T01:44:07;5.20;99.90
46139;DHT22;32398;49.112;8.598;2024-03-08T01:46:34;5.20;99.90
46139;DHT22;32398;49.112;8.598;2024-03-08T01:49:02;5.20;99.90
46139;DHT22;32398;49.112;8.598;2024-03-08T01:51:29;5.20;99.90
46139;DHT22;32398;49.112;8.598;2024-03-08T01:53:57;5.10;99.90
46139;DHT22;32398;49.112;8.598;2024-03-08T01:56:25;5.10;99.90
46139;DHT22;32398;49.112;8.598;2024-03-08T01:58:51;5.10;99.90
46139;DHT22;32398;49.112;8.598;2024-03-08T02:01:18;5.10;99.90
46139;DHT22;32398;49.112;8.598;2024-03-08T02:03:45;5.10;99.90
46139;DHT22;32398;49.112;8.598;2024-03-08T02:06:13;5.10;99.90
46139;DHT22;32398;49.112;8.598;2024-03-08T02:08:41;5.00;99.90
46139;DHT22;32398;49.112;8.598;2024-03-08T02:11:09;5.00;99.90
46139;DHT22;32398;49.112;8.598;2024-03-08T02:13:35;5.00;99.90
46139;DHT22;32398;49.112;8.598;2024-03-08T02:16:02;5.00;99.90
46139;DHT22;32398;49.112;8.598;2024-03-08T02:18:31;4.90;99.90
46139;DHT22;32398;49.112;8.598;2024-03-08T02:21:01;5.00;99.90
46139;DHT22;32398;49.112;8.598;2024-03-08T02:23:28;4.90;99.90
46139;DHT22;32398;49.112;8.598;2024-03-08T02:25:55;4.90;99.90
46139;DHT22;32398;49.112;8.598;2024-03-08T02:28:23;4.90;99.90
46139;DHT22;32398;49.112;8.598;2024-03-08T02:30:50;4.90;99.90
46139;DHT22;32398;49.112;8.598;2024-03-08T02:33:20;4.80;99.90
46139;DHT22;32398;49.112;8.598;2024-03-08T02:35:46;4.80;99.90
46139;DHT22;32398;49.112;8.598;2024-03-08T02:38:15;4.80;99.90
46139;DHT22;32398;49.112;8.598;2024-03-08T02:40:42;4.80;99.90
46139;DHT22;32398;49.112;8.598;2024-03-08T02:43:09;4.70;99.90
46139;DHT22;32398;49.112;8.598;2024-03-08T02:45:36;4.70;99.90
46139;DHT22;32398;49.112;8.598;2024-03-08T02:48:05;4.70;99.90
46139;DHT22;32398;49.112;8.598;2024-03-08T02:50:32;4.70;99.90
46139;DHT22;32398;49.112;8.598;2024-03-08T02:53:02;4.70;99.90
46139;DHT22;32398;49.112;8.598;2024-03-08T02:55:31;4.70;99.90
46139;DHT22;32398;49.112;8.598;2024-03-08T02:58:01;4.60;99.90
46139;DHT22;32398;49.112;8.598;2024-03-08T03:00:28;4.60;99.90
46139;DHT22;32398;49.112;8.598;2024-03-08T03:02:56;4.60;99.90
46139;DHT22;32398;49.112;8.598;2024-03-08T03:05:23;4.60;99.90
46139;DHT22;32398;49.112;8.598;2024-03-08T03:07:49;4.60;99.90
46139;DHT22;32398;49.112;8.598;2024-03-08T03:10:17;4.50;99.90
46139;DHT22;32398;49.112;8.598;2024-03-08T03:12:45;4.60;99.90
46139;DHT22;32398;49.112;8.598;2024-03-08T03:15:14;4.50;99.90
46139;DHT22;32398;49.112;8.598;2024-03-08T03:17:45;4.50;99.90
46139;DHT22;32398;49.112;8.598;2024-03-08T03:20:12;4.50;99.90
46139;DHT22;32398;49.112;8.598;2024-03-08T03:22:40;4.40;99.90
46139;DHT22;32398;49.112;8.598;2024-03-08T03:25:07;4.40;99.90
46139;DHT22;32398;49.112;8.598;2024-03-08T03:27:35;4.50;99.90
46139;DHT22;32398;49.112;8.598;2024-03-08T03:30:04;4.40;99.90
46139;DHT22;32398;49.112;8.598;2024-03-08T03:32:59;4.40;99.90
46139;DHT22;32398;49.112;8.598;2024-03-08T03:35:26;4.40;99.90
46139;DHT22;32398;49.112;8.598;2024-03-08T03:37:53;4.40;99.90
46139;DHT22;32398;49.112;8.598;2024-03-08T03:40:30;4.30;99.90
46139;DHT22;32398;49.112;8.598;2024-03-08T03:42:57;4.30;99.90
46139;DHT22;32398;49.112;8.598;2024-03-08T03:45:24;4.30;99.90
46139;DHT22;32398;49.112;8.598;2024-03-08T03:47:49;4.30;99.90
46139;DHT22;32398;49.112;8.598;2024-03-08T03:50:18;4.30;99.90
46139;DHT22;32398;49.112;8.598;2024-03-08T03:52:45;4.20;99.90
46139;DHT22;32398;49.112;8.598;2024-03-08T03:55:12;4.20;99.90
46139;DHT22;32398;49.112;8.598;2024-03-08T03:57:38;4.20;99.90
46139;DHT22;32398;49.112;8.598;2024-03-08T04:00:06;4.20;99.90
46139;DHT22;32398;49.112;8.598;2024-03-08T04:02:35;4.20;99.90
46139;DHT22;32398;49.112;8.598;2024-03-08T04:05:03;4.10;99.90
46139;DHT22;32398;49.112;8.598;2024-03-08T04:07:30;4.10;99.90
46139;DHT22;32398;49.112;8.598;2024-03-08T04:09:57;4.10;99.90
46139;DHT22;32398;49.112;8.598;2024-03-08T04:12:23;4.10;99.90
46139;DHT22;32398;49.112;8.598;2024-03-08T04:14:50;4.10;99.90
46139;DHT22;32398;49.112;8.598;2024-03-08T04:17:17;4.10;99.90
46139;DHT22;32398;49.112;8.598;2024-03-08T04:19:43;4.10;99.90
46139;DHT22;32398;49.112;8.598;2024-03-08T04:22:10;4.00;99.90
46139;DHT22;32398;49.112;8.598;2024-03-08T04:24:38;4.00;99.90
46139;DHT22;32398;49.112;8.598;2024-03-08T04:27:05;4.00;99.90
46139;DHT22;32398;49.112;8.598;2024-03-08T04:29:32;4.00;99.90
46139;DHT22;32398;49.112;8.598;2024-03-08T04:32:00;4.00;99.90
46139;DHT22;32398;49.112;8.598;2024-03-08T04:34:29;3.90;99.90
46139;DHT22;32398;49.112;8.598;2024-03-08T04:36:56;3.90;99.90
46139;DHT22;32398;49.112;8.598;2024-03-08T04:39:23;3.90;99.90
46139;DHT22;32398;49.112;8.598;2024-03-08T04:41:51;3.90;99.90
46139;DHT22;32398;49.112;8.598;2024-03-08T04:44:19;3.90;99.90
46139;DHT22;32398;49.112;8.598;2024-03-08T04:46:45;3.90;99.90
46139;DHT22;32398;49.112;8.598;2024-03-08T04:49:12;3.80;99.90
46139;DHT22;32398;49.112;8.598;2024-03-08T04:51:38;3.80;99.90
46139;DHT22;32398;49.112;8.598;2024-03-08T04:54:05;3.80;99.90
46139;DHT22;32398;49.112;8.598;2024-03-08T04:56:32;3.80;99.90
46139;DHT22;32398;49.112;8.598;2024-03-08T04:59:00;3.80;99.90
46139;DHT22;32398;49.112;8.598;2024-03-08T05:01:26;3.80;99.90
46139;DHT22;32398;49.112;8.598;2024-03-08T05:03:53;3.70;99.90
46139;DHT22;32398;49.112;8.598;2024-03-08T05:06:20;3.70;99.90
46139;DHT22;32398;49.112;8.598;2024-03-08T05:08:48;3.70;99.90
46139;DHT22;32398;49.112;8.598;2024-03-08T05:11:15;3.70;99.90
46139;DHT22;32398;49.112;8.598;2024-03-08T05:13:41;3.70;99.90
46139;DHT22;32398;49.112;8.598;2024-03-08T05:16:10;3.70;99.90
46139;DHT22;32398;49.112;8.598;2024-03-08T05:18:37;3.70;99.90
46139;DHT22;32398;49.112;8.598;2024-03-08T05:21:03;3.60;99.90
46139;DHT22;32398;49.112;8.598;2024-03-08T05:23:30;3.60;99.90
46139;DHT22;32398;49.112;8.598;2024-03-08T05:25:56;3.60;99.90
46139;DHT22;32398;49.112;8.598;2024-03-08T05:28:23;3.60;99.90
46139;DHT22;32398;49.112;8.598;2024-03-08T05:30:49;3.60;99.90
46139;DHT22;32398;49.112;8.598;2024-03-08T05:33:17;3.60;99.90
46139;DHT22;32398;49.112;8.598;2024-03-08T05:35:44;3.50;99.90
46139;DHT22;32398;49.112;8.598;2024-03-08T05:38:11;3.50;99.90
46139;DHT22;32398;49.112;8.598;2024-03-08T05:40:38;3.50;99.90
46139;DHT22;32398;49.112;8.598;2024-03-08T05:43:04;3.50;99.90
46139;DHT22;32398;49.112;8.598;2024-03-08T05:45:31;3.50;99.90
46139;DHT22;32398;49.112;8.598;2024-03-08T05:47:58;3.50;99.90
46139;DHT22;32398;49.112;8.598;2024-03-08T05:50:26;3.50;99.90
46139;DHT22;32398;49.112;8.598;2024-03-08T05:52:52;3.40;99.90
46139;DHT22;32398;49.112;8.598;2024-03-08T05:55:19;3.40;99.90
46139;DHT22;32398;49.112;8.598;2024-03-08T05:57:46;3.40;99.90
46139;DHT22;32398;49.112;8.598;2024-03-08T06:00:14;3.40;99.90
46139;DHT22;32398;49.112;8.598;2024-03-08T06:02:41;3.40;99.90
46139;DHT22;32398;49.112;8.598;2024-03-08T06:05:08;3.40;99.90
46139;DHT22;32398;49.112;8.598;2024-03-08T06:07:36;3.40;99.90
46139;DHT22;32398;49.112;8.598;2024-03-08T06:10:06;3.30;99.90
46139;DHT22;32398;49.112;8.598;2024-03-08T06:12:35;3.30;99.90
46139;DHT22;32398;49.112;8.598;2024-03-08T06:15:05;3.30;99.90
46139;DHT22;32398;49.112;8.598;2024-03-08T06:17:32;3.30;99.90
46139;DHT22;32398;49.112;8.598;2024-03-08T06:19:59;3.30;99.90
46139;DHT22;32398;49.112;8.598;2024-03-08T06:22:26;3.30;99.90
46139;DHT22;32398;49.112;8.598;2024-03-08T06:24:54;3.30;99.90
46139;DHT22;32398;49.112;8.598;2024-03-08T06:27:21;3.20;99.90
46139;DHT22;32398;49.112;8.598;2024-03-08T06:29:47;3.30;99.90
46139;DHT22;32398;49.112;8.598;2024-03-08T06:32:14;3.30;99.90
46139;DHT22;32398;49.112;8.598;2024-03-08T06:34:41;3.20;99.90
46139;DHT22;32398;49.112;8.598;2024-03-08T06:37:08;3.30;99.90
46139;DHT22;32398;49.112;8.598;2024-03-08T06:39:35;3.20;99.90
46139;DHT22;32398;49.112;8.598;2024-03-08T06:42:02;3.20;99.90
46139;DHT22;32398;49.112;8.598;2024-03-08T06:44:30;3.20;99.90
46139;DHT22;32398;49.112;8.598;2024-03-08T06:46:57;3.20;99.90
46139;DHT22;32398;49.112;8.598;2024-03-08T06:49:24;3.20;99.90
46139;DHT22;32398;49.112;8.598;2024-03-08T06:51:52;3.20;99.90
46139;DHT22;32398;49.112;8.598;2024-03-08T06:54:18;3.10;99.90
46139;DHT22;32398;49.112;8.598;2024-03-08T06:56:45;3.10;99.90
46139;DHT22;32398;49.112;8.598;2024-03-08T06:59:13;3.20;99.90
46139;DHT22;32398;49.112;8.598;2024-03-08T07:01:39;3.10;99.90
46139;DHT22;32398;49.112;8.598;2024-03-08T07:04:06;3.10;99.90
46139;DHT22;32398;49.112;8.598;2024-03-08T07:06:33;3.10;99.90
46139;DHT22;32398;49.112;8.598;2024-03-08T07:08:59;3.10;99.90
46139;DHT22;32398;49.112;8.598;2024-03-08T07:11:26;3.10;99.90
46139;DHT22;32398;49.112;8.598;2024-03-08T07:13:53;3.10;99.90
46139;DHT22;32398;49.112;8.598;2024-03-08T07:16:21;3.10;99.90
46139;DHT22;32398;49.112;8.598;2024-03-08T07:18:49;3.10;99.90
46139;DHT22;32398;49.112;8.598;2024-03-08T07:21:17;3.00;99.90
46139;DHT22;32398;49.112;8.598;2024-03-08T07:23:45;3.10;99.90
46139;DHT22;32398;49.112;8.598;2024-03-08T07:26:28;3.00;99.90
46139;DHT22;32398;49.112;8.598;2024-03-08T07:28:55;3.00;99.90
46139;DHT22;32398;49.112;8.598;2024-03-08T07:31:24;3.10;99.90
46139;DHT22;32398;49.112;8.598;2024-03-08T07:34:00;2.60;99.90
46139;DHT22;32398;49.112;8.598;2024-03-08T07:36:28;3.00;99.90
46139;DHT22;32398;49.112;8.598;2024-03-08T07:38:55;3.00;99.90
46139;DHT22;32398;49.112;8.598;2024-03-08T07:41:22;3.00;99.90
46139;DHT22;32398;49.112;8.598;2024-03-08T07:43:49;3.00;99.90
46139;DHT22;32398;49.112;8.598;2024-03-08T07:46:14;3.00;99.90
46139;DHT22;32398;49.112;8.598;2024-03-08T07:48:45;3.00;99.90
46139;DHT22;32398;49.112;8.598;2024-03-08T07:51:11;3.00;99.90
46139;DHT22;32398;49.112;8.598;2024-03-08T07:53:38;3.00;99.90
46139;DHT22;32398;49.112;8.598;2024-03-08T07:56:06;3.00;99.90
46139;DHT22;32398;49.112;8.598;2024-03-08T07:58:34;3.00;99.90
46139;DHT22;32398;49.112;8.598;2024-03-08T08:01:01;3.00;99.90
46139;DHT22;32398;49.112;8.598;2024-03-08T08:03:28;3.00;99.90
46139;DHT22;32398;49.112;8.598;2024-03-08T08:05:56;3.00;99.90
46139;DHT22;32398;49.112;8.598;2024-03-08T08:08:22;3.00;99.90
46139;DHT22;32398;49.112;8.598;2024-03-08T08:10:49;3.10;99.90
46139;DHT22;32398;49.112;8.598;2024-03-08T08:13:16;3.00;99.90
46139;DHT22;32398;49.112;8.598;2024-03-08T08:15:43;3.00;99.90
46139;DHT22;32398;49.112;8.598;2024-03-08T08:18:09;3.00;99.90
46139;DHT22;32398;49.112;8.598;2024-03-08T08:20:36;3.00;99.90
46139;DHT22;32398;49.112;8.598;2024-03-08T08:23:04;3.00;99.90
46139;DHT22;32398;49.112;8.598;2024-03-08T08:25:31;3.10;99.90
46139;DHT22;32398;49.112;8.598;2024-03-08T08:27:59;3.10;99.90
46139;DHT22;32398;49.112;8.598;2024-03-08T08:30:27;3.10;99.90
46139;DHT22;32398;49.112;8.598;2024-03-08T08:32:54;3.10;99.90
46139;DHT22;32398;49.112;8.598;2024-03-08T08:35:23;3.10;99.90
46139;DHT22;32398;49.112;8.598;2024-03-08T08:37:50;3.20;99.90
46139;DHT22;32398;49.112;8.598;2024-03-08T08:40:18;3.20;99.90
46139;DHT22;32398;49.112;8.598;2024-03-08T08:42:44;3.20;99.90
46139;DHT22;32398;49.112;8.598;2024-03-08T08:45:12;3.30;99.90
46139;DHT22;32398;49.112;8.598;2024-03-08T08:47:39;3.30;99.90
46139;DHT22;32398;49.112;8.598;2024-03-08T08:50:08;3.30;99.90
46139;DHT22;32398;49.112;8.598;2024-03-08T08:52:36;3.30;99.90
46139;DHT22;32398;49.112;8.598;2024-03-08T08:55:03;3.40;99.90
46139;DHT22;32398;49.112;8.598;2024-03-08T08:57:33;3.40;99.90
46139;DHT22;32398;49.112;8.598;2024-03-08T09:00:00;3.40;99.90
46139;DHT22;32398;49.112;8.598;2024-03-08T09:02:27;3.50;99.90
46139;DHT22;32398;49.112;8.598;2024-03-08T09:04:53;3.50;99.90
46139;DHT22;32398;49.112;8.598;2024-03-08T09:07:20;3.50;99.90
46139;DHT22;32398;49.112;8.598;2024-03-08T09:09:47;3.50;99.90
46139;DHT22;32398;49.112;8.598;2024-03-08T09:12:14;3.60;99.90
46139;DHT22;32398;49.112;8.598;2024-03-08T09:14:42;3.60;99.90
46139;DHT22;32398;49.112;8.598;2024-03-08T09:17:09;3.60;99.90
46139;DHT22;32398;49.112;8.598;2024-03-08T09:19:35;3.60;99.90
46139;DHT22;32398;49.112;8.598;2024-03-08T09:22:02;3.70;99.90
46139;DHT22;32398;49.112;8.598;2024-03-08T09:24:30;3.70;99.90
46139;DHT22;32398;49.112;8.598;2024-03-08T09:26:57;3.70;99.90
46139;DHT22;32398;49.112;8.598;2024-03-08T09:29:24;3.70;99.90
46139;DHT22;32398;49.112;8.598;2024-03-08T09:31:52;3.80;99.90
46139;DHT22;32398;49.112;8.598;2024-03-08T09:34:19;3.80;99.90
46139;DHT22;32398;49.112;8.598;2024-03-08T09:36:45;3.80;99.90
46139;DHT22;32398;49.112;8.598;2024-03-08T09:39:12;3.90;99.90
46139;DHT22;32398;49.112;8.598;2024-03-08T09:41:42;3.90;99.90
46139;DHT22;32398;49.112;8.598;2024-03-08T09:44:08;3.90;99.90
46139;DHT22;32398;49.112;8.598;2024-03-08T09:46:35;3.90;99.90
46139;DHT22;32398;49.112;8.598;2024-03-08T09:49:03;3.90;99.90
46139;DHT22;32398;49.112;8.598;2024-03-08T09:51:31;4.00;99.90
46139;DHT22;32398;49.112;8.598;2024-03-08T09:54:00;4.00;99.90
46139;DHT22;32398;49.112;8.598;2024-03-08T09:56:30;4.00;99.90
46139;DHT22;32398;49.112;8.598;2024-03-08T09:58:58;4.00;99.90
46139;DHT22;32398;49.112;8.598;2024-03-08T10:01:46;4.00;99.90
46139;DHT22;32398;49.112;8.598;2024-03-08T10:04:14;4.10;99.90
46139;DHT22;32398;49.112;8.598;2024-03-08T10:06:42;4.10;99.90
46139;DHT22;32398;49.112;8.598;2024-03-08T10:09:09;4.10;99.90
46139;DHT22;32398;49.112;8.598;2024-03-08T10:11:37;4.20;99.90
46139;DHT22;32398;49.112;8.598;2024-03-08T10:14:04;4.20;99.90
46139;DHT22;32398;49.112;8.598;2024-03-08T10:16:31;4.20;99.90
46139;DHT22;32398;49.112;8.598;2024-03-08T10:18:58;4.20;99.90
46139;DHT22;32398;49.112;8.598;2024-03-08T10:21:27;4.30;99.90
46139;DHT22;32398;49.112;8.598;2024-03-08T10:23:53;4.30;99.90
46139;DHT22;32398;49.112;8.598;2024-03-08T10:26:20;4.30;99.90
46139;DHT22;32398;49.112;8.598;2024-03-08T10:28:47;4.30;99.90
46139;DHT22;32398;49.112;8.598;2024-03-08T10:31:14;4.40;99.90
46139;DHT22;32398;49.112;8.598;2024-03-08T10:33:41;4.40;99.90
46139;DHT22;32398;49.112;8.598;2024-03-08T10:36:08;4.40;99.90
46139;DHT22;32398;49.112;8.598;2024-03-08T10:38:36;4.50;99.90
46139;DHT22;32398;49.112;8.598;2024-03-08T10:41:04;4.40;99.90
46139;DHT22;32398;49.112;8.598;2024-03-08T10:43:32;4.50;99.90
46139;DHT22;32398;49.112;8.598;2024-03-08T10:46:05;4.50;99.90
46139;DHT22;32398;49.112;8.598;2024-03-08T10:48:36;4.60;99.90
46139;DHT22;32398;49.112;8.598;2024-03-08T10:51:06;4.60;99.90
46139;DHT22;32398;49.112;8.598;2024-03-08T10:53:37;4.60;99.90
46139;DHT22;32398;49.112;8.598;2024-03-08T10:56:06;4.60;99.90
46139;DHT22;32398;49.112;8.598;2024-03-08T10:58:35;4.70;99.90
46139;DHT22;32398;49.112;8.598;2024-03-08T11:01:01;4.70;99.90
46139;DHT22;32398;49.112;8.598;2024-03-08T11:06:13;4.80;99.90
46139;DHT22;32398;49.112;8.598;2024-03-08T11:08:42;4.90;99.90
46139;DHT22;32398;49.112;8.598;2024-03-08T11:11:22;5.30;99.90
46139;DHT22;32398;49.112;8.598;2024-03-08T11:13:52;4.90;99.90
46139;DHT22;32398;49.112;8.598;2024-03-08T11:19:01;5.00;99.90
46139;DHT22;32398;49.112;8.598;2024-03-08T11:21:33;5.00;99.90
46139;DHT22;32398;49.112;8.598;2024-03-08T11:24:08;5.10;99.90
46139;DHT22;32398;49.112;8.598;2024-03-08T11:26:37;5.10;99.90
46139;DHT22;32398;49.112;8.598;2024-03-08T11:31:50;5.20;99.90
46139;DHT22;32398;49.112;8.598;2024-03-08T11:34:17;5.30;99.90
46139;DHT22;32398;49.112;8.598;2024-03-08T11:36:44;5.30;99.90
46139;DHT22;32398;49.112;8.598;2024-03-08T11:39:15;5.40;99.90
46139;DHT22;32398;49.112;8.598;2024-03-08T11:41:42;5.40;99.90
46139;DHT22;32398;49.112;8.598;2024-03-08T11:44:10;5.40;99.90
46139;DHT22;32398;49.112;8.598;2024-03-08T11:46:41;5.50;99.90
46139;DHT22;32398;49.112;8.598;2024-03-08T11:49:12;5.50;99.90
46139;DHT22;32398;49.112;8.598;2024-03-08T11:51:38;5.50;99.90
46139;DHT22;32398;49.112;8.598;2024-03-08T11:54:05;5.50;99.90
46139;DHT22;32398;49.112;8.598;2024-03-08T11:56:33;5.60;99.90
46139;DHT22;32398;49.112;8.598;2024-03-08T11:59:01;5.60;99.90
46139;DHT22;32398;49.112;8.598;2024-03-08T12:01:27;5.60;99.90
46139;DHT22;32398;49.112;8.598;2024-03-08T12:03:54;5.70;99.90
46139;DHT22;32398;49.112;8.598;2024-03-08T12:06:24;5.70;99.90
46139;DHT22;32398;49.112;8.598;2024-03-08T12:08:50;5.70;99.90
46139;DHT22;32398;49.112;8.598;2024-03-08T12:11:17;5.80;99.90
46139;DHT22;32398;49.112;8.598;2024-03-08T12:13:49;5.70;99.90
46139;DHT22;32398;49.112;8.598;2024-03-08T12:16:17;5.80;99.90
46139;DHT22;32398;49.112;8.598;2024-03-08T12:18:44;5.80;99.90
46139;DHT22;32398;49.112;8.598;2024-03-08T12:21:11;5.90;99.90
46139;DHT22;32398;49.112;8.598;2024-03-08T12:23:39;5.90;99.90
46139;DHT22;32398;49.112;8.598;2024-03-08T12:26:09;6.00;99.90
46139;DHT22;32398;49.112;8.598;2024-03-08T12:28:38;5.90;99.90
46139;DHT22;32398;49.112;8.598;2024-03-08T12:31:07;6.00;99.90
46139;DHT22;32398;49.112;8.598;2024-03-08T12:33:36;6.00;99.90
46139;DHT22;32398;49.112;8.598;2024-03-08T12:36:03;6.10;99.90
46139;DHT22;32398;49.112;8.598;2024-03-08T12:38:32;6.20;99.90
46139;DHT22;32398;49.112;8.598;2024-03-08T12:41:00;6.30;99.90
46139;DHT22;32398;49.112;8.598;2024-03-08T12:43:27;6.30;99.90
46139;DHT22;32398;49.112;8.598;2024-03-08T12:45:55;6.40;99.90
46139;DHT22;32398;49.112;8.598;2024-03-08T12:48:24;6.50;99.90
46139;DHT22;32398;49.112;8.598;2024-03-08T12:50:50;6.60;99.80
46139;DHT22;32398;49.112;8.598;2024-03-08T12:53:17;6.60;99.60
46139;DHT22;32398;49.112;8.598;2024-03-08T12:55:44;6.70;99.50
46139;DHT22;32398;49.112;8.598;2024-03-08T12:58:10;6.80;99.60
46139;DHT22;32398;49.112;8.598;2024-03-08T13:00:37;6.90;99.30
46139;DHT22;32398;49.112;8.598;2024-03-08T13:03:08;6.90;99.20
46139;DHT22;32398;49.112;8.598;2024-03-08T13:05:37;7.00;99.20
46139;DHT22;32398;49.112;8.598;2024-03-08T13:08:05;7.00;98.90
46139;DHT22;32398;49.112;8.598;2024-03-08T13:10:37;7.10;98.90
46139;DHT22;32398;49.112;8.598;2024-03-08T13:13:04;7.20;98.90
46139;DHT22;32398;49.112;8.598;2024-03-08T13:15:30;7.20;98.70
46139;DHT22;32398;49.112;8.598;2024-03-08T13:17:58;7.30;98.70
46139;DHT22;32398;49.112;8.598;2024-03-08T13:20:25;7.40;98.50
46139;DHT22;32398;49.112;8.598;2024-03-08T13:22:55;7.40;98.40
46139;DHT22;32398;49.112;8.598;2024-03-08T13:25:22;7.50;98.40
46139;DHT22;32398;49.112;8.598;2024-03-08T13:27:49;7.50;98.40
46139;DHT22;32398;49.112;8.598;2024-03-08T13:30:15;7.60;98.40
46139;DHT22;32398;49.112;8.598;2024-03-08T13:32:44;7.60;98.30
46139;DHT22;32398;49.112;8.598;2024-03-08T13:35:11;7.70;98.10
46139;DHT22;32398;49.112;8.598;2024-03-08T13:37:39;7.70;98.20
46139;DHT22;32398;49.112;8.598;2024-03-08T13:40:07;7.80;98.20
46139;DHT22;32398;49.112;8.598;2024-03-08T13:42:39;7.80;98.00
46139;DHT22;32398;49.112;8.598;2024-03-08T13:45:06;7.80;98.00
46139;DHT22;32398;49.112;8.598;2024-03-08T13:47:34;7.80;98.10
46139;DHT22;32398;49.112;8.598;2024-03-08T13:50:01;7.90;98.20
46139;DHT22;32398;49.112;8.598;2024-03-08T13:52:27;7.90;97.80
46139;DHT22;32398;49.112;8.598;2024-03-08T13:54:55;7.90;97.90
46139;DHT22;32398;49.112;8.598;2024-03-08T13:57:23;8.00;98.10
46139;DHT22;32398;49.112;8.598;2024-03-08T13:59:49;8.00;98.10
46139;DHT22;32398;49.112;8.598;2024-03-08T14:02:16;8.00;97.80
46139;DHT22;32398;49.112;8.598;2024-03-08T14:04:43;8.10;98.00
46139;DHT22;32398;49.112;8.598;2024-03-08T14:07:09;8.10;97.90
46139;DHT22;32398;49.112;8.598;2024-03-08T14:09:36;8.20;97.90
46139;DHT22;32398;49.112;8.598;2024-03-08T14:12:08;8.30;97.80
46139;DHT22;32398;49.112;8.598;2024-03-08T14:14:36;8.30;97.90
46139;DHT22;32398;49.112;8.598;2024-03-08T14:17:03;8.30;97.70
46139;DHT22;32398;49.112;8.598;2024-03-08T14:19:29;8.40;97.70
46139;DHT22;32398;49.112;8.598;2024-03-08T14:21:56;8.40;97.90
46139;DHT22;32398;49.112;8.598;2024-03-08T14:24:24;9.10;97.90
46139;DHT22;32398;49.112;8.598;2024-03-08T14:26:51;8.50;97.70
46139;DHT22;32398;49.112;8.598;2024-03-08T14:29:17;8.60;97.80
46139;DHT22;32398;49.112;8.598;2024-03-08T14:31:45;8.60;97.50
46139;DHT22;32398;49.112;8.598;2024-03-08T14:34:12;8.60;97.40
46139;DHT22;32398;49.112;8.598;2024-03-08T14:36:39;8.70;97.70
46139;DHT22;32398;49.112;8.598;2024-03-08T14:39:06;8.80;97.80
46139;DHT22;32398;49.112;8.598;2024-03-08T14:41:33;8.90;97.70
46139;DHT22;32398;49.112;8.598;2024-03-08T14:43:59;8.90;97.20
46139;DHT22;32398;49.112;8.598;2024-03-08T14:46:26;8.90;97.30
46139;DHT22;32398;49.112;8.598;2024-03-08T14:48:54;9.00;97.40
46139;DHT22;32398;49.112;8.598;2024-03-08T14:51:21;9.10;97.60
46139;DHT22;32398;49.112;8.598;2024-03-08T14:53:51;9.10;97.40
46139;DHT22;32398;49.112;8.598;2024-03-08T14:56:18;9.10;97.20
46139;DHT22;32398;49.112;8.598;2024-03-08T14:58:45;9.20;97.10
46139;DHT22;32398;49.112;8.598;2024-03-08T15:01:14;9.20;97.20
46139;DHT22;32398;49.112;8.598;2024-03-08T15:03:41;9.30;97.20
46139;DHT22;32398;49.112;8.598;2024-03-08T15:06:09;9.30;96.70
46139;DHT22;32398;49.112;8.598;2024-03-08T15:08:36;9.30;96.90
46139;DHT22;32398;49.112;8.598;2024-03-08T15:11:03;9.40;96.50
46139;DHT22;32398;49.112;8.598;2024-03-08T15:13:31;9.40;96.80
46139;DHT22;32398;49.112;8.598;2024-03-08T15:16:05;9.40;96.80
46139;DHT22;32398;49.112;8.598;2024-03-08T15:18:32;9.50;97.10
46139;DHT22;32398;49.112;8.598;2024-03-08T15:21:01;9.50;96.70
46139;DHT22;32398;49.112;8.598;2024-03-08T15:23:33;9.50;96.70
46139;DHT22;32398;49.112;8.598;2024-03-08T15:25:59;9.50;96.80
46139;DHT22;32398;49.112;8.598;2024-03-08T15:28:26;9.50;96.90
46139;DHT22;32398;49.112;8.598;2024-03-08T15:31:01;9.60;96.40
46139;DHT22;32398;49.112;8.598;2024-03-08T15:33:30;9.60;96.50
46139;DHT22;32398;49.112;8.598;2024-03-08T15:35:57;9.60;96.50
46139;DHT22;32398;49.112;8.598;2024-03-08T15:38:25;9.60;96.40
46139;DHT22;32398;49.112;8.598;2024-03-08T15:40:54;9.60;96.50
46139;DHT22;32398;49.112;8.598;2024-03-08T15:43:21;9.60;96.60
46139;DHT22;32398;49.112;8.598;2024-03-08T15:45:48;9.60;96.60
46139;DHT22;32398;49.112;8.598;2024-03-08T15:48:15;9.60;96.60
46139;DHT22;32398;49.112;8.598;2024-03-08T15:50:41;9.60;96.50
46139;DHT22;32398;49.112;8.598;2024-03-08T15:53:08;9.60;96.80
46139;DHT22;32398;49.112;8.598;2024-03-08T15:55:35;9.60;96.70